Time;durP1;ratioP1;P1;durP2;ratioP2;P2;SDS_P1;SDS_P2;PMS_P1;PMS_P2;Temp;Humidity;BMP_temperature;BMP_pressure;BME280_temperature;BME280_humidity;BME280_pressure;Samples;Min_cycle;Max_cycle;Signal;HPM_P1;HPM_P2
2023/06/23 00:00:13;;;;;;;49.17;11.13;;;28.20;53.50;;;;;;5047355;28;20207;-67
2023/06/23 00:02:40;;;;;;;35.60;10.40;;;28.20;53.50;;;;;;5042024;28;20203;-63
2023/06/23 00:05:08;;;;;;;34.00;10.17;;;28.10;53.50;;;;;;5043508;28;20258;-68
2023/06/23 00:07:37;;;;;;;28.27;10.10;;;28.10;54.10;;;;;;5044725;28;20205;-60
2023/06/23 00:10:05;;;;;;;32.67;10.07;;;28.10;53.50;;;;;;5046537;28;20877;-63
2023/06/23 00:12:33;;;;;;;33.00;10.33;;;28.10;53.50;;;;;;5050536;28;20231;-62
2023/06/23 00:15:00;;;;;;;37.37;10.93;;;28.10;53.50;;;;;;5050415;28;20673;-58
2023/06/23 00:17:27;;;;;;;28.43;10.23;;;28.10;53.60;;;;;;5048521;28;20223;-59
2023/06/23 00:19:54;;;;;;;32.90;10.43;;;28.10;53.60;;;;;;5046762;28;20211;-59
2023/06/23 00:22:21;;;;;;;34.33;10.17;;;28.00;53.50;;;;;;5049698;28;20902;-59
2023/06/23 00:24:49;;;;;;;30.33;9.97;;;28.00;53.50;;;;;;5049702;28;20696;-63
2023/06/23 00:27:16;;;;;;;36.13;10.17;;;28.00;53.50;;;;;;5048258;28;20207;-58
2023/06/23 00:29:43;;;;;;;29.53;9.87;;;28.00;53.60;;;;;;5048239;28;20200;-59
2023/06/23 00:32:10;;;;;;;35.30;10.87;;;28.00;53.60;;;;;;5050094;28;20521;-60
2023/06/23 00:34:37;;;;;;;30.17;10.47;;;28.00;53.60;;;;;;5049878;28;20403;-59
2023/06/23 00:37:04;;;;;;;30.67;10.27;;;28.00;53.60;;;;;;5046412;28;20211;-58
2023/06/23 00:39:31;;;;;;;28.00;10.17;;;28.00;53.60;;;;;;5048486;28;20204;-59
2023/06/23 00:42:04;;;;;;;41.83;11.33;;;27.90;53.60;;;;;;5042328;28;20201;-58
2023/06/23 00:44:33;;;;;;;29.40;9.70;;;27.90;53.60;;;;;;5042508;28;20246;-69
2023/06/23 00:47:00;;;;;;;40.60;11.73;;;27.90;53.60;;;;;;5047309;28;20675;-59
2023/06/23 00:49:27;;;;;;;50.57;11.70;;;27.90;53.60;;;;;;5034247;28;20197;-58
2023/06/23 00:51:54;;;;;;;33.30;10.60;;;27.90;53.60;;;;;;5029335;28;20207;-67
2023/06/23 00:54:23;;;;;;;37.03;10.20;;;27.90;53.60;;;;;;5033338;28;20203;-58
2023/06/23 00:56:50;;;;;;;26.90;9.40;;;27.90;53.60;;;;;;5030108;28;20678;-58
2023/06/23 00:59:19;;;;;;;32.43;10.43;;;27.80;53.50;;;;;;5035194;28;20571;-61
2023/06/23 01:01:46;;;;;;;31.93;10.83;;;27.80;53.60;;;;;;5049514;28;20196;-61
2023/06/23 01:04:14;;;;;;;55.97;12.13;;;27.80;53.60;;;;;;5047303;28;20215;-58
2023/06/23 01:06:47;;;;;;;32.50;11.03;;;27.80;53.60;;;;;;5048101;28;20196;-59
2023/06/23 01:09:26;;;;;;;32.50;10.67;;;27.80;53.60;;;;;;5049642;28;20195;-58
2023/06/23 01:12:01;;;;;;;38.33;10.77;;;27.80;53.60;;;;;;5049322;28;20201;-59
2023/06/23 01:14:35;;;;;;;39.43;11.40;;;27.70;53.50;;;;;;5042946;28;20207;-59
2023/06/23 01:17:06;;;;;;;38.80;11.50;;;27.80;53.60;;;;;;5028372;28;20204;-58
2023/06/23 01:19:53;;;;;;;31.13;10.77;;;27.70;53.60;;;;;;5049299;28;20204;-58
2023/06/23 01:22:31;;;;;;;35.57;11.20;;;27.70;53.60;;;;;;5048849;28;20759;-69
2023/06/23 01:25:11;;;;;;;42.10;11.57;;;27.70;53.60;;;;;;5046994;28;20208;-62
2023/06/23 01:28:03;;;;;;;28.03;10.37;;;27.70;53.90;;;;;;5048221;28;20238;-64
2023/06/23 01:30:34;;;;;;;33.90;11.10;;;27.70;53.60;;;;;;5049319;28;20271;-62
2023/06/23 01:33:09;;;;;;;37.10;10.87;;;27.70;53.60;;;;;;5048916;28;20210;-58
2023/06/23 01:35:43;;;;;;;33.20;10.73;;;27.60;53.60;;;;;;5037317;28;20895;-62
2023/06/23 01:38:15;;;;;;;36.17;10.90;;;27.60;53.60;;;;;;5029968;28;20220;-59
2023/06/23 01:40:43;;;;;;;53.90;12.60;;;27.60;53.60;;;;;;5026469;28;20705;-59
2023/06/23 01:43:12;;;;;;;31.67;11.43;;;27.60;54.20;;;;;;5044441;28;20207;-59
2023/06/23 01:45:41;;;;;;;34.03;11.17;;;27.60;53.60;;;;;;5046175;28;20204;-58
2023/06/23 01:48:13;;;;;;;31.23;11.00;;;27.50;53.60;;;;;;5041485;28;20210;-63
2023/06/23 01:50:42;;;;;;;34.03;11.17;;;27.50;53.60;;;;;;5043880;28;20204;-67
2023/06/23 01:53:10;;;;;;;36.77;12.07;;;27.50;54.20;;;;;;5046711;28;20215;-62
2023/06/23 01:55:39;;;;;;;30.73;11.33;;;27.50;53.60;;;;;;5048054;28;20234;-65
2023/06/23 01:58:08;;;;;;;31.90;11.27;;;27.50;53.60;;;;;;5045202;28;20250;-58
2023/06/23 02:00:36;;;;;;;32.37;11.57;;;27.50;53.60;;;;;;5048691;28;20192;-58
2023/06/23 02:03:06;;;;;;;33.57;12.20;;;27.50;53.60;;;;;;5047230;28;20196;-58
2023/06/23 02:05:36;;;;;;;33.27;11.83;;;27.50;53.60;;;;;;5044402;28;20211;-59
2023/06/23 02:08:04;;;;;;;40.47;13.20;;;27.40;53.60;;;;;;5048467;28;20192;-60
2023/06/23 02:10:31;;;;;;;34.90;12.67;;;27.50;53.70;;;;;;5036741;28;20196;-59
2023/06/23 02:12:59;;;;;;;37.23;13.07;;;27.40;53.60;;;;;;5047044;28;20203;-59
2023/06/23 02:15:28;;;;;;;35.00;11.87;;;27.40;53.60;;;;;;5045410;28;20212;-59
2023/06/23 02:17:56;;;;;;;35.93;11.70;;;27.40;53.60;;;;;;5047519;28;20200;-59
2023/06/23 02:20:26;;;;;;;58.23;13.80;;;27.40;53.70;;;;;;5045574;28;20203;-59
2023/06/23 02:22:54;;;;;;;33.70;12.03;;;27.40;53.60;;;;;;5040725;28;20675;-58
2023/06/23 02:25:23;;;;;;;35.37;12.47;;;27.40;53.60;;;;;;5046060;28;20196;-59
2023/06/23 02:27:50;;;;;;;33.83;13.00;;;27.40;53.70;;;;;;5045122;28;20212;-60
2023/06/23 02:30:19;;;;;;;30.37;12.73;;;27.40;53.60;;;;;;5048243;28;20292;-59
2023/06/23 02:32:47;;;;;;;34.43;12.50;;;27.40;54.30;;;;;;5041238;28;20197;-59
2023/06/23 02:35:14;;;;;;;39.83;13.50;;;27.40;53.70;;;;;;5033207;28;20602;-69
2023/06/23 02:37:46;;;;;;;55.20;14.57;;;27.30;53.70;;;;;;5041756;28;20813;-66
2023/06/23 02:40:18;;;;;;;34.80;12.63;;;27.30;53.70;;;;;;5044906;28;20211;-65
2023/06/23 02:42:50;;;;;;;40.27;14.67;;;27.30;53.70;;;;;;5042417;28;20210;-68
2023/06/23 02:45:23;;;;;;;36.77;13.43;;;27.30;53.70;;;;;;5040641;28;20329;-61
2023/06/23 02:47:53;;;;;;;34.73;13.93;;;27.30;53.70;;;;;;5036789;28;20223;-62
2023/06/23 02:50:27;;;;;;;34.57;12.87;;;27.20;53.60;;;;;;5047880;28;20208;-61
2023/06/23 02:53:00;;;;;;;34.97;13.53;;;27.20;54.20;;;;;;5045520;28;20200;-60
2023/06/23 02:55:29;;;;;;;36.80;13.77;;;27.20;53.60;;;;;;5045409;28;20216;-61
2023/06/23 02:58:00;;;;;;;33.07;13.87;;;27.20;53.60;;;;;;5047637;28;20671;-60
2023/06/23 03:00:29;;;;;;;42.93;14.93;;;27.20;53.60;;;;;;5044868;28;20231;-60
2023/06/23 03:02:59;;;;;;;41.13;14.30;;;27.20;53.70;;;;;;5046565;28;20204;-61
2023/06/23 03:05:27;;;;;;;57.90;16.17;;;27.20;53.70;;;;;;5045982;28;20288;-59
2023/06/23 03:07:54;;;;;;;45.37;15.17;;;27.20;53.70;;;;;;5044220;28;20207;-60
2023/06/23 03:10:22;;;;;;;34.87;13.03;;;27.20;54.30;;;;;;5051841;28;20200;-59
2023/06/23 03:12:50;;;;;;;33.43;12.67;;;27.20;53.70;;;;;;5035307;28;20270;-59
2023/06/23 03:15:17;;;;;;;41.30;14.33;;;27.10;53.60;;;;;;5041923;28;20193;-58
2023/06/23 03:17:47;;;;;;;32.63;12.77;;;27.10;53.60;;;;;;5045731;28;20204;-59
2023/06/23 03:20:24;;;;;;;38.67;13.83;;;27.10;53.60;;;;;;5050331;28;20200;-59
2023/06/23 03:22:55;;;;;;;31.03;13.60;;;27.10;53.60;;;;;;5051146;28;20228;-59
2023/06/23 03:25:26;;;;;;;32.77;13.40;;;27.10;53.60;;;;;;5051472;28;20211;-60
2023/06/23 03:27:56;;;;;;;32.60;12.97;;;27.10;53.60;;;;;;5046113;28;20644;-59
2023/06/23 03:30:26;;;;;;;28.13;11.80;;;27.10;53.60;;;;;;5051023;28;20208;-58
2023/06/23 03:32:58;;;;;;;34.33;12.47;;;27.10;53.60;;;;;;5051059;28;20204;-61
2023/06/23 03:35:29;;;;;;;32.43;12.70;;;27.10;53.60;;;;;;5042530;28;20273;-66
2023/06/23 03:37:59;;;;;;;32.33;12.73;;;27.10;53.60;;;;;;5047683;28;20211;-60
2023/06/23 03:40:34;;;;;;;28.50;12.00;;;27.00;53.60;;;;;;5047863;28;20667;-58
2023/06/23 03:43:06;;;;;;;35.77;12.93;;;27.00;53.60;;;;;;5048451;28;20195;-59
2023/06/23 03:45:35;;;;;;;40.17;13.33;;;27.00;53.60;;;;;;5032303;28;21046;-61
2023/06/23 03:48:04;;;;;;;33.77;12.20;;;27.00;53.60;;;;;;5033869;28;20671;-59
2023/06/23 03:50:36;;;;;;;34.43;12.83;;;27.00;53.60;;;;;;5050914;28;20243;-65
2023/06/23 03:53:04;;;;;;;30.43;12.90;;;27.00;53.60;;;;;;5050517;28;20559;-59
2023/06/23 03:55:35;;;;;;;37.17;13.03;;;27.00;53.60;;;;;;5050628;28;20220;-60
2023/06/23 03:58:05;;;;;;;26.10;11.53;;;27.00;53.60;;;;;;5044533;28;20208;-58
2023/06/23 04:00:35;;;;;;;30.93;12.17;;;26.90;53.50;;;;;;5049944;28;20292;-60
2023/06/23 04:03:06;;;;;;;35.77;12.77;;;26.90;53.50;;;;;;5048763;28;20728;-59
2023/06/23 04:05:34;;;;;;;36.30;12.17;;;26.90;53.50;;;;;;5049755;28;20216;-59
2023/06/23 04:08:03;;;;;;;29.07;12.90;;;26.90;53.60;;;;;;5044633;28;20200;-59
2023/06/23 04:10:32;;;;;;;34.57;12.37;;;26.90;53.60;;;;;;5040810;28;20200;-58
2023/06/23 04:13:02;;;;;;;55.17;14.70;;;26.90;53.60;;;;;;5050199;28;20188;-59
2023/06/23 04:15:30;;;;;;;32.90;13.07;;;26.90;53.60;;;;;;5050602;28;20195;-59
2023/06/23 04:17:59;;;;;;;44.47;13.73;;;26.80;53.50;;;;;;5047615;28;20295;-58
2023/06/23 04:20:27;;;;;;;31.30;12.57;;;26.80;53.60;;;;;;5050533;28;20211;-59
2023/06/23 04:22:56;;;;;;;44.67;14.00;;;26.80;53.60;;;;;;5050099;28;20281;-58
2023/06/23 04:25:24;;;;;;;25.17;11.23;;;26.80;53.60;;;;;;5048801;28;20197;-59
2023/06/23 04:27:56;;;;;;;51.67;14.30;;;26.80;53.60;;;;;;5044146;28;20227;-58
2023/06/23 04:30:27;;;;;;;40.57;13.77;;;26.80;53.60;;;;;;5048179;28;20196;-59
2023/06/23 04:32:54;;;;;;;33.30;13.33;;;26.80;53.60;;;;;;5048798;28;20203;-59
2023/06/23 04:35:21;;;;;;;29.50;12.53;;;26.70;53.60;;;;;;5050354;28;20210;-60
2023/06/23 04:37:53;;;;;;;35.77;13.17;;;26.80;53.70;;;;;;5047960;28;20707;-58
2023/06/23 04:40:26;;;;;;;38.33;13.67;;;26.70;53.60;;;;;;5010614;28;20203;-59
2023/06/23 04:42:56;;;;;;;34.27;12.73;;;26.70;53.60;;;;;;5042033;28;20202;-61
2023/06/23 04:45:27;;;;;;;34.37;12.20;;;26.70;53.60;;;;;;5049994;28;20660;-61
2023/06/23 04:47:58;;;;;;;51.05;15.35;;;26.70;53.60;;;;;;5046209;28;20445;-62
2023/06/23 04:50:27;;;;;;;38.53;13.47;;;26.60;54.00;;;;;;5049930;28;20211;-58
2023/06/23 04:53:09;;;;;;;32.80;13.20;;;26.60;54.00;;;;;;5048055;28;20210;-58
2023/06/23 04:55:38;;;;;;;32.73;12.57;;;26.60;53.80;;;;;;5049636;28;20641;-59
2023/06/23 04:58:07;;;;;;;53.60;14.43;;;26.70;53.80;;;;;;5045208;28;20208;-58
2023/06/23 05:00:38;;;;;;;38.53;13.67;;;26.70;53.70;;;;;;5012437;28;20205;-61
2023/06/23 05:03:06;;;;;;;45.80;13.43;;;26.70;53.60;;;;;;5030480;28;20193;-58
2023/06/23 05:05:35;;;;;;;32.17;12.20;;;26.70;53.60;;;;;;5047538;28;20695;-58
2023/06/23 05:08:04;;;;;;;39.30;12.80;;;26.70;53.60;;;;;;5049718;28;20199;-58
2023/06/23 05:10:33;;;;;;;43.17;13.47;;;26.70;53.60;;;;;;5047101;28;20197;-58
2023/06/23 05:13:02;;;;;;;47.80;13.97;;;26.70;53.60;;;;;;5033656;28;20649;-63
2023/06/23 05:15:29;;;;;;;42.93;13.93;;;26.70;53.60;;;;;;5049712;28;20652;-63
2023/06/23 05:18:01;;;;;;;31.57;13.33;;;26.70;53.70;;;;;;5049592;28;20251;-58
2023/06/23 05:20:30;;;;;;;30.60;11.93;;;26.70;53.80;;;;;;5049241;28;20743;-65
2023/06/23 05:23:02;;;;;;;91.47;17.53;;;26.70;53.80;;;;;;5036057;28;20580;-58
2023/06/23 05:25:32;;;;;;;49.60;14.27;;;26.70;53.80;;;;;;5030576;28;20200;-62
2023/06/23 05:28:01;;;;;;;33.87;13.83;;;26.70;53.80;;;;;;5044813;28;20237;-63
2023/06/23 05:30:30;;;;;;;47.83;14.23;;;26.70;53.80;;;;;;5043153;28;20200;-59
2023/06/23 05:33:01;;;;;;;37.07;13.60;;;26.70;53.80;;;;;;5030847;28;20209;-58
2023/06/23 05:35:32;;;;;;;30.80;14.10;;;26.70;53.90;;;;;;5048978;28;20238;-58
2023/06/23 05:38:02;;;;;;;37.73;14.57;;;26.70;53.90;;;;;;5039165;28;20220;-57
2023/06/23 05:40:29;;;;;;;42.43;15.23;;;26.70;54.00;;;;;;5028435;28;20227;-58
2023/06/23 05:42:56;;;;;;;57.63;16.90;;;26.70;54.00;;;;;;5029403;28;20204;-58
2023/06/23 05:45:23;;;;;;;45.17;14.97;;;26.70;54.00;;;;;;5035729;28;20200;-58
2023/06/23 05:48:00;;;;;;;38.50;15.13;;;26.70;54.00;;;;;;5048860;28;20295;-58
2023/06/23 05:50:32;;;;;;;38.67;14.10;;;26.70;54.00;;;;;;5030732;28;20201;-58
2023/06/23 05:53:03;;;;;;;40.83;14.57;;;26.70;54.00;;;;;;5035817;28;20199;-58
2023/06/23 05:55:33;;;;;;;31.03;13.30;;;26.70;54.00;;;;;;5022925;28;20662;-58
2023/06/23 05:58:05;;;;;;;37.80;13.57;;;26.70;54.00;;;;;;5014351;28;20236;-58
2023/06/23 06:00:38;;;;;;;31.10;12.47;;;26.70;54.10;;;;;;5028854;28;20197;-58
2023/06/23 06:03:08;;;;;;;35.20;13.27;;;26.70;54.60;;;;;;5040181;28;20227;-61
2023/06/23 06:05:39;;;;;;;39.13;13.40;;;26.70;54.10;;;;;;5048051;28;20298;-61
2023/06/23 06:08:07;;;;;;;33.63;12.60;;;26.80;54.10;;;;;;5048044;28;20196;-58
2023/06/23 06:10:35;;;;;;;37.97;12.63;;;26.80;54.10;;;;;;5048073;28;20214;-59
2023/06/23 06:13:04;;;;;;;35.07;11.90;;;26.80;54.20;;;;;;5046304;28;20199;-58
2023/06/23 06:15:33;;;;;;;25.17;10.33;;;26.80;54.10;;;;;;5047236;28;20212;-58
2023/06/23 06:18:04;;;;;;;28.93;10.90;;;26.80;54.10;;;;;;5048114;28;20222;-59
2023/06/23 06:20:33;;;;;;;36.90;11.07;;;26.80;54.10;;;;;;5047726;28;20864;-61
2023/06/23 06:23:04;;;;;;;26.57;9.37;;;26.80;54.20;;;;;;5046226;28;20210;-58
2023/06/23 06:25:33;;;;;;;33.33;9.80;;;26.80;54.20;;;;;;5037793;28;20212;-58
2023/06/23 06:28:01;;;;;;;33.23;9.53;;;26.80;54.20;;;;;;5043151;28;20200;-60
2023/06/23 06:30:29;;;;;;;32.63;8.77;;;26.90;54.20;;;;;;5047711;28;20204;-62
2023/06/23 06:33:00;;;;;;;30.67;8.23;;;26.90;54.30;;;;;;5046010;28;20208;-61
2023/06/23 06:35:28;;;;;;;47.03;10.37;;;26.90;54.20;;;;;;5041260;28;20207;-58
2023/06/23 06:37:57;;;;;;;41.77;9.43;;;26.90;54.20;;;;;;5047488;28;20635;-58
2023/06/23 06:40:27;;;;;;;26.43;7.40;;;27.00;54.30;;;;;;5037651;28;20685;-61
2023/06/23 06:42:54;;;;;;;31.47;7.50;;;27.00;54.40;;;;;;5023907;28;20234;-59
2023/06/23 06:45:20;;;;;;;31.90;8.20;;;27.00;54.30;;;;;;5044418;28;20211;-58
2023/06/23 06:47:50;;;;;;;24.47;6.83;;;27.00;54.40;;;;;;5051889;28;20199;-58
2023/06/23 06:50:18;;;;;;;27.83;7.03;;;27.00;54.30;;;;;;5051753;28;20204;-60
2023/06/23 06:52:46;;;;;;;28.17;6.90;;;27.00;54.30;;;;;;5049110;28;20200;-61
2023/06/23 06:55:17;;;;;;;25.87;6.63;;;27.10;54.30;;;;;;5045027;28;20281;-58
2023/06/23 06:57:47;;;;;;;34.93;7.10;;;27.10;54.40;;;;;;5051719;28;20777;-59
2023/06/23 07:00:17;;;;;;;21.23;6.07;;;27.10;54.40;;;;;;5051862;28;20204;-60
2023/06/23 07:02:44;;;;;;;30.07;6.57;;;27.10;54.30;;;;;;5048789;28;20290;-60
2023/06/23 07:05:11;;;;;;;32.43;7.23;;;27.10;54.30;;;;;;5044291;28;20196;-60
2023/06/23 07:07:38;;;;;;;28.70;6.67;;;27.10;54.30;;;;;;5051453;28;20196;-59
2023/06/23 07:10:06;;;;;;;23.97;6.23;;;27.20;54.30;;;;;;5051713;28;20200;-58
2023/06/23 07:12:33;;;;;;;26.80;6.40;;;27.20;54.30;;;;;;5049755;28;20199;-59
2023/06/23 07:15:02;;;;;;;47.03;8.13;;;27.20;54.40;;;;;;5048734;28;20200;-61
2023/06/23 07:17:29;;;;;;;29.00;6.33;;;27.20;54.30;;;;;;5036441;28;20755;-67
2023/06/23 07:19:56;;;;;;;23.17;5.87;;;27.20;54.30;;;;;;5023802;28;20204;-64
2023/06/23 07:22:23;;;;;;;30.50;6.53;;;27.30;54.40;;;;;;5041384;28;20231;-59
2023/06/23 07:24:49;;;;;;;27.23;6.20;;;27.30;54.40;;;;;;5031424;28;20295;-62
2023/06/23 07:27:17;;;;;;;26.03;5.97;;;27.30;54.40;;;;;;5026158;28;20205;-75
2023/06/23 07:29:44;;;;;;;37.57;7.50;;;27.30;54.40;;;;;;5018871;28;20227;-62
2023/06/23 07:32:14;;;;;;;31.10;6.90;;;27.30;54.40;;;;;;5043925;28;20200;-71
2023/06/23 07:34:41;;;;;;;37.47;7.23;;;27.30;54.40;;;;;;5041845;28;20196;-61
2023/06/23 07:37:09;;;;;;;38.23;6.90;;;27.40;55.10;;;;;;5028099;28;20232;-67
2023/06/23 07:39:36;;;;;;;31.40;6.77;;;27.40;54.50;;;;;;5030079;28;20665;-59
2023/06/23 07:42:04;;;;;;;28.17;6.73;;;27.40;54.50;;;;;;5031449;28;20197;-63
2023/06/23 07:44:31;;;;;;;23.67;5.93;;;27.40;54.50;;;;;;5048417;28;20199;-68
2023/06/23 07:46:58;;;;;;;31.90;7.17;;;27.40;54.50;;;;;;5049735;28;21087;-68
2023/06/23 07:49:27;;;;;;;26.10;6.43;;;27.50;55.10;;;;;;5046206;28;20207;-63
2023/06/23 07:51:54;;;;;;;46.80;7.90;;;27.50;54.50;;;;;;5011886;28;20217;-65
2023/06/23 07:54:21;;;;;;;28.57;5.73;;;27.50;54.40;;;;;;5049081;28;20211;-68
2023/06/23 07:56:48;;;;;;;32.90;7.17;;;27.50;54.50;;;;;;5037331;28;20703;-61
2023/06/23 07:59:14;;;;;;;40.63;8.97;;;27.60;54.50;;;;;;5035758;28;20548;-70
2023/06/23 08:01:41;;;;;;;29.57;7.57;;;27.60;54.50;;;;;;5029783;28;20664;-70
2023/06/23 08:04:08;;;;;;;40.63;9.47;;;27.60;54.50;;;;;;5020214;28;20207;-81
2023/06/23 08:06:37;;;;;;;40.37;9.00;;;27.60;54.50;;;;;;5017706;28;20219;-74
2023/06/23 08:09:04;;;;;;;54.90;10.97;;;27.60;54.50;;;;;;5025567;28;20205;-81
2023/06/23 08:11:31;;;;;;;40.77;9.10;;;27.70;54.50;;;;;;5026270;28;20199;-82
2023/06/23 08:14:00;;;;;;;36.50;8.67;;;27.70;54.50;;;;;;5025694;28;20653;-68
2023/06/23 08:16:27;;;;;;;33.50;7.87;;;27.70;54.50;;;;;;5027403;28;20206;-63
2023/06/23 08:18:54;;;;;;;55.77;10.20;;;27.70;54.40;;;;;;5031757;28;20233;-61
2023/06/23 08:21:21;;;;;;;40.17;8.57;;;27.80;54.60;;;;;;5030375;28;20212;-68
2023/06/23 08:23:50;;;;;;;33.13;8.30;;;27.80;54.60;;;;;;5047733;28;20262;-61
2023/06/23 08:26:17;;;;;;;32.60;7.03;;;27.80;54.60;;;;;;5049110;28;20210;-65
2023/06/23 08:28:44;;;;;;;30.87;7.00;;;27.90;54.60;;;;;;5048881;28;20313;-61
2023/06/23 08:31:11;;;;;;;49.67;8.83;;;27.90;54.50;;;;;;5046937;28;20675;-61
2023/06/23 08:33:39;;;;;;;36.63;7.03;;;27.90;54.50;;;;;;5049459;28;20192;-63
2023/06/23 08:36:07;;;;;;;33.23;6.97;;;27.90;54.50;;;;;;4997823;28;1128674;-61
2023/06/23 08:38:34;;;;;;;35.67;7.33;;;28.00;54.50;;;;;;5032105;28;20224;-63
2023/06/23 08:41:02;;;;;;;32.17;7.00;;;28.00;54.40;;;;;;5009854;28;20526;-63
2023/06/23 08:43:30;;;;;;;24.00;5.83;;;28.00;54.40;;;;;;5010097;28;20194;-67
2023/06/23 08:45:59;;;;;;;32.43;6.70;;;28.00;54.40;;;;;;5010043;28;20205;-66
2023/06/23 08:48:27;;;;;;;35.70;7.50;;;28.10;54.40;;;;;;5013435;28;20205;-61
2023/06/23 08:50:55;;;;;;;31.53;6.67;;;28.10;54.50;;;;;;5049682;28;20204;-63
2023/06/23 08:53:23;;;;;;;32.50;6.37;;;28.10;54.50;;;;;;5029571;28;20541;-61
2023/06/23 08:55:51;;;;;;;23.50;5.90;;;28.20;54.50;;;;;;5009996;28;20241;-61
2023/06/23 08:58:20;;;;;;;70.53;9.80;;;28.20;54.50;;;;;;5017401;28;20287;-61
2023/06/23 09:00:48;;;;;;;32.80;6.87;;;28.20;54.40;;;;;;5043605;28;20676;-63
2023/06/23 09:03:15;;;;;;;25.93;6.00;;;28.20;54.40;;;;;;5049027;28;20196;-61
2023/06/23 09:05:42;;;;;;;33.03;6.43;;;28.30;54.40;;;;;;5048549;28;20671;-62
2023/06/23 09:08:09;;;;;;;29.73;6.23;;;28.30;54.40;;;;;;5038713;28;20650;-61
2023/06/23 09:10:36;;;;;;;31.10;6.37;;;28.30;54.40;;;;;;5009661;28;20201;-63
2023/06/23 09:13:22;;;;;;;27.47;6.27;;;28.30;54.30;;;;;;5009457;28;20206;-62
2023/06/23 09:15:50;;;;;;;32.30;6.47;;;28.30;54.30;;;;;;5027425;28;20611;-75
2023/06/23 09:18:19;;;;;;;25.10;5.60;;;28.40;54.20;;;;;;5046956;28;20322;-69
2023/06/23 09:20:47;;;;;;;31.40;6.37;;;28.40;54.20;;;;;;5049712;28;20197;-73
2023/06/23 09:23:15;;;;;;;32.20;6.53;;;28.40;54.20;;;;;;5049045;28;20196;-70
2023/06/23 09:25:44;;;;;;;25.20;5.53;;;28.40;54.20;;;;;;5049157;28;20218;-69
2023/06/23 09:28:29;;;;;;;29.33;6.27;;;28.50;54.30;;;;;;5047500;28;20219;-61
2023/06/23 09:30:58;;;;;;;30.03;5.93;;;28.50;54.30;;;;;;5042366;28;20332;-61
2023/06/23 09:33:26;;;;;;;33.37;6.70;;;28.50;54.20;;;;;;5028108;28;20204;-61
2023/06/23 09:35:54;;;;;;;30.33;6.53;;;28.50;54.20;;;;;;5028599;28;20681;-64
2023/06/23 09:38:22;;;;;;;24.67;5.63;;;28.60;54.30;;;;;;5032043;28;20220;-61
2023/06/23 09:41:00;;;;;;;29.30;6.30;;;28.70;54.30;;;;;;5040767;28;20204;-61
2023/06/23 09:43:28;;;;;;;34.70;7.07;;;28.70;54.30;;;;;;5048172;28;20200;-68
2023/06/23 09:45:55;;;;;;;24.17;6.67;;;28.70;54.30;;;;;;5049053;28;20195;-72
2023/06/23 09:48:22;;;;;;;27.60;6.43;;;28.70;54.20;;;;;;5047921;28;20204;-65
2023/06/23 09:51:00;;;;;;;30.07;6.67;;;28.80;54.30;;;;;;5046993;28;20212;-64
2023/06/23 09:53:32;;;;;;;30.77;7.10;;;28.80;54.30;;;;;;5048225;28;20204;-65
2023/06/23 09:55:59;;;;;;;34.87;6.60;;;28.80;54.20;;;;;;5047701;28;20205;-64
2023/06/23 09:58:32;;;;;;;35.17;7.17;;;28.80;54.20;;;;;;5047771;28;20286;-62
2023/06/23 10:01:02;;;;;;;42.50;7.70;;;28.90;54.20;;;;;;5046255;28;20291;-61
2023/06/23 10:03:30;;;;;;;34.20;7.20;;;28.90;54.20;;;;;;5047972;28;20204;-61
2023/06/23 10:05:57;;;;;;;28.63;6.73;;;29.00;54.20;;;;;;5036190;28;20208;-66
2023/06/23 10:08:25;;;;;;;27.87;6.57;;;29.00;54.20;;;;;;5047637;28;20559;-61
2023/06/23 10:10:52;;;;;;;26.33;6.37;;;29.00;54.10;;;;;;5046813;28;20214;-61
2023/06/23 10:13:21;;;;;;;35.80;7.33;;;29.00;54.00;;;;;;5047360;28;20203;-62
2023/06/23 10:15:50;;;;;;;27.77;6.53;;;29.10;54.10;;;;;;5038475;28;20200;-62
2023/06/23 10:18:16;;;;;;;24.97;5.67;;;29.10;54.00;;;;;;5034245;28;20313;-61
2023/06/23 10:20:45;;;;;;;31.10;6.47;;;29.10;54.00;;;;;;5048010;28;20188;-61
2023/06/23 10:23:14;;;;;;;29.83;6.43;;;29.20;54.00;;;;;;5047536;28;20207;-62
2023/06/23 10:25:41;;;;;;;32.90;6.53;;;29.20;54.00;;;;;;5047773;28;20299;-61
2023/06/23 10:28:10;;;;;;;32.43;6.70;;;29.30;54.00;;;;;;5046627;28;20214;-61
2023/06/23 10:30:38;;;;;;;30.07;6.33;;;29.30;54.00;;;;;;5047646;28;20226;-61
2023/06/23 10:33:09;;;;;;;26.90;6.20;;;29.30;53.90;;;;;;5047990;28;20188;-61
2023/06/23 10:35:37;;;;;;;37.63;6.73;;;29.40;53.90;;;;;;5038316;28;20360;-61
2023/06/23 10:38:07;;;;;;;23.43;5.97;;;29.40;53.90;;;;;;5045900;28;20242;-75
2023/06/23 10:40:39;;;;;;;23.73;5.40;;;29.40;53.80;;;;;;5047224;28;20204;-76
2023/06/23 10:43:07;;;;;;;32.40;6.43;;;29.50;53.70;;;;;;5047786;28;20266;-61
2023/06/23 10:45:35;;;;;;;26.93;5.70;;;29.50;53.70;;;;;;5047581;28;20200;-72
2023/06/23 10:48:02;;;;;;;23.20;6.10;;;29.60;53.70;;;;;;5045935;28;20200;-72
2023/06/23 10:50:31;;;;;;;29.47;5.83;;;29.60;53.60;;;;;;5047760;28;20204;-68
2023/06/23 10:53:10;;;;;;;33.67;6.67;;;29.70;53.60;;;;;;5047719;28;20188;-61
2023/06/23 10:55:39;;;;;;;31.60;6.23;;;29.70;53.60;;;;;;5047794;28;20212;-61
2023/06/23 10:58:11;;;;;;;17.70;5.30;;;29.80;53.70;;;;;;5046448;28;20234;-61
2023/06/23 11:00:38;;;;;;;19.87;4.97;;;29.80;53.70;;;;;;5047504;28;20207;-61
2023/06/23 11:03:09;;;;;;;27.80;6.00;;;29.90;53.70;;;;;;5047878;28;20188;-60
2023/06/23 11:05:42;;;;;;;29.97;6.27;;;30.00;53.80;;;;;;5035688;28;20609;-67
2023/06/23 11:08:12;;;;;;;27.37;5.67;;;30.10;53.50;;;;;;5047645;28;20200;-61
2023/06/23 11:10:56;;;;;;;32.70;6.23;;;30.20;53.50;;;;;;5047337;28;20604;-62
2023/06/23 11:13:25;;;;;;;43.17;7.37;;;30.30;53.40;;;;;;5046959;28;20200;-68
2023/06/23 11:15:54;;;;;;;31.10;6.37;;;30.40;53.50;;;;;;5045176;28;20200;-64
2023/06/23 11:18:23;;;;;;;27.07;5.97;;;30.50;53.40;;;;;;5047563;28;20692;-61
2023/06/23 11:20:51;;;;;;;29.83;6.20;;;30.60;53.30;;;;;;5047752;28;20200;-63
2023/06/23 11:23:19;;;;;;;28.57;6.23;;;30.70;53.20;;;;;;5047759;28;20208;-61
2023/06/23 11:25:47;;;;;;;31.37;6.37;;;30.80;53.10;;;;;;5046690;28;20200;-61
2023/06/23 11:28:36;;;;;;;27.17;6.10;;;31.00;53.10;;;;;;5047617;28;20215;-61
2023/06/23 11:31:13;;;;;;;29.17;6.93;;;31.10;52.80;;;;;;5045259;28;20665;-64
2023/06/23 11:33:41;;;;;;;24.77;5.67;;;31.20;52.70;;;;;;5038807;28;20200;-64
2023/06/23 11:36:11;;;;;;;21.43;5.60;;;31.30;52.70;;;;;;5036787;28;20226;-61
2023/06/23 11:38:40;;;;;;;24.10;6.03;;;31.40;52.50;;;;;;5050930;28;20220;-61
2023/06/23 11:41:07;;;;;;;31.13;6.35;;;31.60;52.50;;;;;;5050548;28;20884;-62
2023/06/23 11:43:34;;;;;;;22.33;5.68;;;31.60;52.40;;;;;;5050559;28;20656;-66
2023/06/23 11:46:09;;;;;;;26.77;5.97;;;31.70;52.20;;;;;;5048467;28;20633;-61
2023/06/23 11:48:37;;;;;;;32.55;6.65;;;31.80;52.00;;;;;;5050904;28;20283;-62
2023/06/23 11:51:06;;;;;;;27.25;6.13;;;31.90;52.00;;;;;;5050527;28;20192;-65
2023/06/23 11:53:35;;;;;;;33.53;6.60;;;32.00;52.00;;;;;;5050600;28;20986;-64
2023/06/23 11:56:03;;;;;;;28.30;5.93;;;32.00;51.70;;;;;;5047771;28;20272;-61
2023/06/23 11:58:31;;;;;;;52.65;8.27;;;32.10;51.60;;;;;;5046763;28;20232;-62
2023/06/23 12:00:58;;;;;;;23.95;5.95;;;32.10;51.50;;;;;;5042945;28;20200;-61
2023/06/23 12:03:26;;;;;;;32.70;6.45;;;32.10;51.30;;;;;;5050457;28;20204;-62
2023/06/23 12:05:53;;;;;;;43.20;7.38;;;32.20;51.30;;;;;;5048951;28;20204;-67
2023/06/23 12:08:20;;;;;;;29.67;6.63;;;32.20;51.30;;;;;;5050391;28;20230;-61
2023/06/23 12:10:48;;;;;;;28.60;6.40;;;32.20;51.20;;;;;;5050306;28;20204;-65
2023/06/23 12:13:16;;;;;;;30.23;5.95;;;32.20;51.00;;;;;;5049782;28;20196;-62
2023/06/23 12:15:44;;;;;;;29.17;6.10;;;32.30;51.20;;;;;;5050126;28;20215;-62
2023/06/23 12:18:11;;;;;;;25.70;5.93;;;32.30;51.20;;;;;;5039278;28;20200;-62
2023/06/23 12:20:40;;;;;;;36.47;6.88;;;32.40;51.20;;;;;;5049705;28;20417;-64
2023/06/23 12:23:10;;;;;;;33.63;6.70;;;32.40;51.10;;;;;;5050210;28;20204;-62
2023/06/23 12:25:39;;;;;;;31.50;6.50;;;32.40;51.00;;;;;;5049960;28;20189;-70
2023/06/23 12:28:13;;;;;;;23.58;5.72;;;32.40;50.90;;;;;;5048289;28;20210;-65
2023/06/23 12:30:41;;;;;;;47.90;7.97;;;32.40;50.70;;;;;;5041507;28;20204;-62
2023/06/23 12:33:16;;;;;;;32.00;6.35;;;32.50;50.80;;;;;;5047973;28;20253;-62
2023/06/23 12:35:56;;;;;;;29.08;5.97;;;32.50;50.70;;;;;;5050124;28;20215;-61
2023/06/23 12:38:23;;;;;;;23.33;5.72;;;32.60;50.80;;;;;;5047570;28;20637;-61
2023/06/23 12:40:51;;;;;;;61.20;9.05;;;32.60;51.10;;;;;;5023270;28;20213;-62